createdAt,value
2019-05-16T00:00:40.340Z,7.00
2019-05-16T00:03:10.873Z,7.00
2019-05-16T00:05:51.450Z,7.10
2019-05-16T00:08:13.540Z,7.00
2019-05-16T00:10:42.936Z,7.00
2019-05-16T00:13:13.340Z,7.00
2019-05-16T00:15:44.287Z,7.00
2019-05-16T00:18:13.592Z,7.00
2019-05-16T00:20:42.988Z,6.90
2019-05-16T00:23:13.885Z,6.90
2019-05-16T00:25:43.304Z,6.90
2019-05-16T00:28:14.605Z,7.00
2019-05-16T00:30:44.033Z,6.90
2019-05-16T00:33:14.491Z,7.00
2019-05-16T00:35:44.611Z,7.00
2019-05-16T00:38:15.149Z,7.00
2019-05-16T00:40:44.805Z,7.00
2019-05-16T00:43:18.378Z,7.10
2019-05-16T00:45:48.651Z,7.20
2019-05-16T00:48:18.895Z,7.20
2019-05-16T00:50:48.281Z,7.20
2019-05-16T00:53:19.765Z,7.30
2019-05-16T00:55:51.129Z,7.30
2019-05-16T00:58:21.504Z,7.30
2019-05-16T01:00:55.784Z,7.30
2019-05-16T01:03:28.931Z,7.30
2019-05-16T01:05:58.875Z,7.20
2019-05-16T01:08:28.901Z,7.30
2019-05-16T01:11:02.036Z,7.20
2019-05-16T01:13:31.740Z,7.20
2019-05-16T01:16:03.546Z,7.30
2019-05-16T01:18:33.665Z,7.30
2019-05-16T01:21:04.696Z,7.30
2019-05-16T01:23:35.264Z,7.30
2019-05-16T01:26:04.640Z,7.30
2019-05-16T01:28:34.417Z,7.30
2019-05-16T01:31:04.573Z,7.30
2019-05-16T01:33:34.020Z,7.30
2019-05-16T01:36:03.875Z,7.30
2019-05-16T01:38:35.548Z,7.20
2019-05-16T01:41:05.621Z,7.10
2019-05-16T01:43:37.611Z,7.00
2019-05-16T01:46:08.394Z,7.00
2019-05-16T01:48:38.242Z,7.00
2019-05-16T01:51:07.919Z,7.00
2019-05-16T01:53:39.308Z,7.10
2019-05-16T01:56:09.301Z,7.10
2019-05-16T01:58:38.672Z,7.00
2019-05-16T02:01:13.106Z,6.90
2019-05-16T02:03:41.046Z,6.90
2019-05-16T02:06:10.409Z,6.80
2019-05-16T02:08:40.300Z,6.90
2019-05-16T02:11:10.511Z,6.80
2019-05-16T02:13:41.050Z,6.80
2019-05-16T02:16:10.894Z,6.70
2019-05-16T02:18:41.619Z,6.70
2019-05-16T02:21:14.675Z,6.70
2019-05-16T02:23:49.022Z,6.80
2019-05-16T02:26:21.290Z,6.90
2019-05-16T02:28:51.231Z,6.90
2019-05-16T02:31:22.767Z,6.80
2019-05-16T02:33:52.415Z,6.80
2019-05-16T02:36:22.057Z,6.70
2019-05-16T02:38:55.540Z,6.70
2019-05-16T02:41:24.225Z,6.70
2019-05-16T02:43:57.143Z,6.70
2019-05-16T02:46:30.934Z,6.70
2019-05-16T02:49:01.532Z,6.50
2019-05-16T02:51:31.764Z,6.50
2019-05-16T02:54:02.626Z,6.50
2019-05-16T02:56:33.060Z,6.50
2019-05-16T02:59:02.453Z,6.50
2019-05-16T03:01:34.382Z,6.40
2019-05-16T03:04:03.708Z,6.40
2019-05-16T03:06:34.403Z,6.40
2019-05-16T03:09:06.567Z,6.40
2019-05-16T03:11:37.656Z,6.40
2019-05-16T03:14:07.657Z,6.30
2019-05-16T03:16:41.735Z,6.30
2019-05-16T03:19:13.529Z,6.30
2019-05-16T03:21:44.974Z,6.30
2019-05-16T03:24:15.961Z,6.30
2019-05-16T03:26:46.567Z,6.30
2019-05-16T03:29:16.279Z,6.30
2019-05-16T03:31:46.095Z,6.30
2019-05-16T03:34:17.306Z,6.30
2019-05-16T03:36:47.254Z,6.20
2019-05-16T03:39:17.205Z,6.20
2019-05-16T03:41:46.570Z,6.20
2019-05-16T03:44:20.791Z,6.20
2019-05-16T03:46:51.855Z,6.20
2019-05-16T03:49:24.191Z,6.20
2019-05-16T03:51:54.108Z,6.20
2019-05-16T03:54:23.496Z,6.10
2019-05-16T03:56:52.909Z,6.00
2019-05-16T03:59:22.296Z,5.90
2019-05-16T04:01:52.961Z,5.90
2019-05-16T04:04:22.357Z,5.90
2019-05-16T04:06:52.092Z,5.80
2019-05-16T04:09:21.537Z,5.80
2019-05-16T04:11:52.025Z,5.70
2019-05-16T04:14:21.685Z,5.70
2019-05-16T04:16:52.130Z,5.80
2019-05-16T04:19:21.503Z,5.80
2019-05-16T04:21:53.434Z,5.80
2019-05-16T04:24:25.580Z,5.80
2019-05-16T04:26:56.494Z,5.90
2019-05-16T04:29:27.669Z,5.90
2019-05-16T04:32:01.157Z,5.90
2019-05-16T04:34:31.200Z,5.90
2019-05-16T04:37:02.804Z,5.80
2019-05-16T04:39:33.503Z,5.80
2019-05-16T04:42:05.115Z,5.80
2019-05-16T04:44:35.445Z,5.80
2019-05-16T04:47:06.694Z,5.80
2019-05-16T04:49:37.106Z,5.90
2019-05-16T04:52:10.977Z,5.90
2019-05-16T04:54:41.867Z,6.10
2019-05-16T04:57:11.914Z,6.20
2019-05-16T04:59:41.894Z,6.30
2019-05-16T05:02:12.557Z,6.40
2019-05-16T05:04:42.632Z,6.40
2019-05-16T05:07:13.211Z,6.60
2019-05-16T05:09:43.598Z,6.70
2019-05-16T05:12:13.335Z,7.00
2019-05-16T05:14:43.116Z,7.10
2019-05-16T05:17:12.661Z,7.20
2019-05-16T05:19:42.051Z,7.40
2019-05-16T05:22:11.433Z,7.50
2019-05-16T05:24:44.672Z,7.30
2019-05-16T05:27:14.096Z,7.50
2019-05-16T05:29:43.826Z,7.50
2019-05-16T05:32:14.918Z,7.70
2019-05-16T05:34:44.780Z,7.90
2019-05-16T05:37:15.781Z,7.90
2019-05-16T05:39:45.688Z,7.80
2019-05-16T05:42:20.125Z,7.70
2019-05-16T05:44:50.786Z,7.60
2019-05-16T05:47:20.697Z,7.60
2019-05-16T05:50:11.263Z,7.50
2019-05-16T05:52:41.320Z,7.50
2019-05-16T05:55:11.312Z,7.40
2019-05-16T05:57:42.277Z,7.40
2019-05-16T06:00:12.559Z,7.40
2019-05-16T06:02:41.928Z,7.50
2019-05-16T06:05:12.614Z,7.40
2019-05-16T06:07:43.166Z,7.40
2019-05-16T06:10:12.872Z,7.50
2019-05-16T06:12:42.838Z,7.60
2019-05-16T06:15:13.300Z,7.70
2019-05-16T06:17:46.653Z,7.90
2019-05-16T06:20:20.156Z,8.30
2019-05-16T06:22:50.966Z,8.60
2019-05-16T06:25:23.677Z,8.90
2019-05-16T06:27:54.140Z,9.30
2019-05-16T06:30:25.019Z,9.70
2019-05-16T06:32:59.686Z,10.00
2019-05-16T06:35:30.066Z,10.20
2019-05-16T06:38:00.583Z,10.30
2019-05-16T06:40:31.012Z,10.40
2019-05-16T06:43:01.268Z,10.50
2019-05-16T06:45:32.111Z,10.50
2019-05-16T06:48:01.863Z,10.60
2019-05-16T06:50:32.193Z,10.60
2019-05-16T06:53:01.579Z,10.50
2019-05-16T06:55:31.075Z,10.50
2019-05-16T06:58:00.846Z,10.40
2019-05-16T07:00:33.031Z,10.50
2019-05-16T07:03:02.417Z,10.50
2019-05-16T07:05:34.442Z,10.30
2019-05-16T07:08:04.699Z,10.10
2019-05-16T07:10:35.425Z,9.70
2019-05-16T07:13:04.759Z,9.80
2019-05-16T07:15:34.728Z,9.70
2019-05-16T07:18:05.060Z,9.90
2019-05-16T07:20:34.701Z,10.20
2019-05-16T07:23:04.136Z,10.70
2019-05-16T07:25:34.016Z,11.20
2019-05-16T07:28:03.955Z,11.20
2019-05-16T07:30:34.783Z,11.50
2019-05-16T07:33:05.571Z,11.50
2019-05-16T07:35:35.507Z,12.10
2019-05-16T07:38:06.007Z,12.40
2019-05-16T07:40:36.156Z,12.30
2019-05-16T07:43:05.524Z,12.30
2019-05-16T07:45:37.719Z,12.10
2019-05-16T07:48:06.646Z,11.70
2019-05-16T07:50:36.323Z,11.50
2019-05-16T07:53:06.207Z,11.60
2019-05-16T07:55:37.446Z,11.60
2019-05-16T07:58:10.246Z,11.60
2019-05-16T08:00:53.241Z,11.60
2019-05-16T08:03:12.993Z,11.60
2019-05-16T08:05:42.663Z,11.60
2019-05-16T08:08:12.784Z,11.70
2019-05-16T08:10:46.562Z,11.50
2019-05-16T08:13:13.387Z,11.40
2019-05-16T08:15:43.614Z,11.30
2019-05-16T08:18:13.108Z,11.20
2019-05-16T08:20:42.536Z,11.30
2019-05-16T08:23:12.371Z,11.40
2019-05-16T08:25:44.081Z,11.50
2019-05-16T08:28:15.546Z,11.60
2019-05-16T08:30:46.585Z,11.50
2019-05-16T08:33:21.278Z,11.40
2019-05-16T08:35:51.473Z,11.50
2019-05-16T08:38:21.425Z,11.50
2019-05-16T08:43:22.873Z,11.70
2019-05-16T08:45:52.717Z,11.80
2019-05-16T08:48:23.383Z,11.70
2019-05-16T08:50:05.381Z,11.40
2019-05-16T08:50:55.135Z,11.80
2019-05-16T08:53:24.645Z,11.70
2019-05-16T08:55:54.454Z,11.70
2019-05-16T08:58:23.860Z,11.90
2019-05-16T09:00:56.029Z,12.10
2019-05-16T09:03:27.871Z,12.20
2019-05-16T09:05:57.589Z,12.20
2019-05-16T09:08:27.470Z,12.40
2019-05-16T09:11:09.489Z,12.60
2019-05-16T09:13:32.697Z,12.80
2019-05-16T09:16:03.406Z,12.90
2019-05-16T09:18:40.965Z,13.00
2019-05-16T09:21:08.512Z,13.10
2019-05-16T09:23:38.948Z,13.30
2019-05-16T09:26:08.366Z,13.40
2019-05-16T09:28:39.080Z,13.10
2019-05-16T09:31:10.407Z,13.10
2019-05-16T09:33:41.605Z,13.30
2019-05-16T09:36:11.346Z,13.30
2019-05-16T09:38:41.185Z,13.40
2019-05-16T09:41:11.502Z,13.30
2019-05-16T09:43:41.987Z,13.30
2019-05-16T09:46:12.234Z,13.30
2019-05-16T09:48:42.263Z,13.30
2019-05-16T09:51:12.247Z,13.40
2019-05-16T09:53:42.517Z,13.50
2019-05-16T10:02:18.849Z,13.30
2019-05-16T10:04:48.266Z,13.40
2019-05-16T10:07:18.009Z,13.50
2019-05-16T10:09:50.207Z,13.70
2019-05-16T10:12:18.926Z,14.00
2019-05-16T10:14:50.316Z,14.10
2019-05-16T10:17:19.693Z,14.10
2019-05-16T10:19:50.477Z,14.00
2019-05-16T10:22:20.004Z,13.90
2019-05-16T10:24:49.496Z,14.10
2019-05-16T10:27:19.196Z,14.10
2019-05-16T10:29:49.525Z,14.20
2019-05-16T10:32:18.928Z,14.30
2019-05-16T10:34:48.632Z,14.40
2019-05-16T10:37:18.682Z,14.50
2019-05-16T10:39:48.093Z,14.40
2019-05-16T10:42:27.856Z,14.30
2019-05-16T10:44:53.645Z,14.20
2019-05-16T10:47:27.598Z,14.20
2019-05-16T10:49:56.478Z,14.20
2019-05-16T10:52:27.129Z,14.40
2019-05-16T10:55:01.450Z,14.50
2019-05-16T10:57:29.943Z,14.60
2019-05-16T11:00:09.682Z,14.70
2019-05-16T11:02:30.330Z,14.70
2019-05-16T11:05:21.728Z,14.60
2019-05-16T11:07:32.137Z,14.70
2019-05-16T11:10:03.668Z,14.80
2019-05-16T11:12:47.443Z,14.70
2019-05-16T11:15:10.799Z,14.80
2019-05-16T11:17:37.251Z,15.20
2019-05-16T11:20:09.436Z,15.60
2019-05-16T11:22:39.290Z,15.90
2019-05-16T11:25:21.292Z,16.00
2019-05-16T11:27:40.604Z,16.10
2019-05-16T11:30:11.047Z,16.10
2019-05-16T11:32:46.932Z,16.50
2019-05-16T11:35:17.536Z,16.60
2019-05-16T11:37:47.695Z,16.80
2019-05-16T11:40:18.763Z,16.80
2019-05-16T11:43:05.443Z,17.10
2019-05-16T11:45:20.153Z,17.10
2019-05-16T11:47:50.206Z,17.10
2019-05-16T11:50:20.202Z,17.30
2019-05-16T11:52:49.725Z,17.60
2019-05-16T11:55:19.594Z,17.80
2019-05-16T11:57:56.831Z,17.80
2019-05-16T12:00:30.143Z,18.00
2019-05-16T12:02:57.807Z,17.80
2019-05-16T12:05:27.624Z,17.60
2019-05-16T12:07:59.206Z,17.60
2019-05-16T12:10:29.811Z,17.60
2019-05-16T12:13:01.076Z,17.90
2019-05-16T12:15:31.209Z,18.00
2019-05-16T12:18:05.025Z,17.50
2019-05-16T12:20:32.632Z,17.00
2019-05-16T12:23:03.005Z,17.20
2019-05-16T12:25:32.504Z,17.20
2019-05-16T12:28:02.924Z,17.00
2019-05-16T12:30:40.131Z,17.20
2019-05-16T12:33:07.289Z,17.40
2019-05-16T12:35:37.445Z,17.20
2019-05-16T12:38:08.441Z,17.10
2019-05-16T12:40:37.868Z,16.90
2019-05-16T12:43:07.945Z,16.60
2019-05-16T12:45:39.105Z,16.20
2019-05-16T12:48:09.584Z,15.80
2019-05-16T12:50:39.743Z,15.80
2019-05-16T12:53:09.668Z,15.40
2019-05-16T12:55:39.047Z,15.00
2019-05-16T12:58:20.117Z,14.70
2019-05-16T13:00:58.261Z,14.90
2019-05-16T13:03:28.999Z,15.00
2019-05-16T13:06:03.260Z,15.30
2019-05-16T13:08:33.639Z,15.20
2019-05-16T13:11:03.773Z,15.00
2019-05-16T13:13:38.311Z,14.90
2019-05-16T13:16:08.496Z,14.90
2019-05-16T13:18:38.344Z,14.70
2019-05-16T13:21:08.207Z,14.60
2019-05-16T13:23:38.912Z,14.80
2019-05-16T13:26:08.804Z,14.80
2019-05-16T13:28:42.378Z,14.90
2019-05-16T13:31:11.766Z,14.70
2019-05-16T13:33:41.301Z,14.70
2019-05-16T13:36:11.979Z,14.50
2019-05-16T13:38:43.495Z,14.40
2019-05-16T13:41:13.292Z,14.40
2019-05-16T13:43:43.282Z,14.30
2019-05-16T13:46:13.716Z,14.30
2019-05-16T13:48:43.393Z,14.20
2019-05-16T13:51:15.681Z,14.10
2019-05-16T13:53:47.171Z,14.00
2019-05-16T13:56:17.737Z,13.80
2019-05-16T13:58:48.316Z,13.80
2019-05-16T14:01:21.662Z,13.80
2019-05-16T14:03:49.479Z,13.90
2019-05-16T14:06:24.799Z,14.00
2019-05-16T14:08:56.753Z,14.20
2019-05-16T14:11:26.243Z,14.20
2019-05-16T14:13:56.374Z,14.30
2019-05-16T14:16:26.928Z,14.50
2019-05-16T14:18:57.410Z,14.50
2019-05-16T14:21:27.048Z,14.70
2019-05-16T14:24:00.013Z,14.90
2019-05-16T14:26:30.335Z,15.10
2019-05-16T14:29:07.868Z,14.80
2019-05-16T14:31:37.692Z,14.80
2019-05-16T14:34:07.044Z,14.90
2019-05-16T14:36:39.031Z,14.80
2019-05-16T14:39:09.034Z,14.80
2019-05-16T14:41:38.447Z,14.60
2019-05-16T14:44:08.623Z,14.20
2019-05-16T14:46:38.572Z,13.90
2019-05-16T14:49:08.159Z,13.70
2019-05-16T14:51:39.063Z,13.70
2019-05-16T14:54:16.615Z,13.60
2019-05-16T14:56:47.583Z,13.50
2019-05-16T14:59:18.063Z,13.50
2019-05-16T15:01:48.483Z,13.50
2019-05-16T15:04:18.948Z,13.50
2019-05-16T15:06:48.290Z,13.40
2019-05-16T15:09:18.906Z,13.40
2019-05-16T15:11:48.405Z,13.30
2019-05-16T15:14:18.193Z,13.30
2019-05-16T15:16:51.709Z,13.20
2019-05-16T15:19:20.799Z,13.30
2019-05-16T15:21:50.151Z,13.50
2019-05-16T15:24:20.707Z,13.30
2019-05-16T15:26:50.029Z,13.30
2019-05-16T15:29:20.080Z,13.20
2019-05-16T15:31:50.603Z,13.20
2019-05-16T15:34:19.933Z,13.20
2019-05-16T15:36:53.341Z,13.10
2019-05-16T15:39:24.045Z,13.20
2019-05-16T15:41:54.086Z,13.10
2019-05-16T15:44:23.504Z,13.10
2019-05-16T15:46:54.028Z,13.10
2019-05-16T15:49:23.423Z,13.20
2019-05-16T15:51:56.472Z,13.20
2019-05-16T15:54:28.579Z,13.10
2019-05-16T15:56:58.721Z,13.00
2019-05-16T15:59:28.120Z,12.90
2019-05-16T16:01:57.526Z,12.70
2019-05-16T16:04:27.421Z,12.70
2019-05-16T16:06:57.159Z,12.60
2019-05-16T16:09:27.600Z,12.60
2019-05-16T16:11:57.857Z,12.60
2019-05-16T16:14:27.578Z,12.60
2019-05-16T16:16:57.408Z,12.50
2019-05-16T16:19:27.385Z,12.40
2019-05-16T16:21:57.945Z,12.40
2019-05-16T16:24:28.025Z,12.40
2019-05-16T16:26:57.601Z,12.30
2019-05-16T16:29:27.343Z,12.30
2019-05-16T16:31:57.528Z,12.30
2019-05-16T16:34:28.103Z,12.30
2019-05-16T16:36:58.692Z,12.30
2019-05-16T16:39:28.813Z,12.20
2019-05-16T16:41:59.116Z,12.20
2019-05-16T16:44:29.633Z,12.20
2019-05-16T16:46:59.037Z,12.20
2019-05-16T16:49:29.732Z,12.10
2019-05-16T16:51:59.524Z,12.10
2019-05-16T16:54:30.630Z,12.10
2019-05-16T16:57:00.469Z,12.00
2019-05-16T16:59:31.268Z,12.00
2019-05-16T17:02:02.945Z,12.00
2019-05-16T17:04:32.632Z,11.90
2019-05-16T17:07:06.145Z,11.80
2019-05-16T17:09:37.351Z,11.80
2019-05-16T17:12:07.435Z,11.70
2019-05-16T17:14:37.124Z,11.70
2019-05-16T17:17:08.265Z,11.70
2019-05-16T17:19:37.640Z,11.60
2019-05-16T17:22:17.013Z,11.60
2019-05-16T17:24:38.207Z,11.60
2019-05-16T17:27:08.259Z,11.70
2019-05-16T17:29:38.553Z,11.50
2019-05-16T17:32:10.174Z,11.50
2019-05-16T17:34:40.212Z,11.50
2019-05-16T17:37:09.824Z,11.50
2019-05-16T17:39:41.715Z,11.50
2019-05-16T17:42:11.730Z,11.50
2019-05-16T17:44:41.093Z,11.50
2019-05-16T17:47:17.184Z,11.50
2019-05-16T17:49:46.253Z,11.50
2019-05-16T17:52:18.385Z,11.50
2019-05-16T17:54:53.180Z,11.50
2019-05-16T17:57:22.126Z,11.40
2019-05-16T17:59:53.272Z,11.40
2019-05-16T18:02:23.985Z,11.30
2019-05-16T18:04:57.565Z,11.30
2019-05-16T18:07:31.744Z,11.20
2019-05-16T18:10:01.605Z,11.20
2019-05-16T18:12:32.432Z,11.10
2019-05-16T18:15:02.705Z,11.00
2019-05-16T18:17:33.234Z,11.00
2019-05-16T18:20:06.511Z,11.00
2019-05-16T18:22:36.723Z,11.10
2019-05-16T18:25:08.458Z,11.10
2019-05-16T18:27:39.091Z,11.10
2019-05-16T18:30:11.005Z,11.10
2019-05-16T18:32:42.922Z,11.10
2019-05-16T18:35:13.696Z,11.10
2019-05-16T18:37:46.275Z,11.00
2019-05-16T18:40:16.938Z,10.90
2019-05-16T18:42:47.843Z,10.90
2019-05-16T18:45:19.501Z,10.90
2019-05-16T18:47:52.453Z,10.70
2019-05-16T18:50:22.083Z,10.70
2019-05-16T18:52:52.319Z,10.80
2019-05-16T18:55:22.504Z,10.70
2019-05-16T18:57:51.897Z,10.80
2019-05-16T19:00:23.182Z,10.80
2019-05-16T19:02:53.679Z,10.70
2019-05-16T19:05:26.408Z,10.70
2019-05-16T19:07:56.411Z,10.80
2019-05-16T19:10:26.961Z,10.70
2019-05-16T19:12:59.545Z,10.70
2019-05-16T19:15:28.048Z,10.80
2019-05-16T19:17:58.704Z,10.80
2019-05-16T19:20:29.220Z,10.80
2019-05-16T19:22:59.036Z,10.80
2019-05-16T19:25:28.931Z,10.90
2019-05-16T19:27:58.905Z,10.80
2019-05-16T19:30:28.821Z,10.80
2019-05-16T19:32:59.000Z,10.70
2019-05-16T19:35:28.650Z,10.60
2019-05-16T19:38:00.224Z,10.60
2019-05-16T19:40:31.268Z,10.70
2019-05-16T19:43:01.300Z,10.70
2019-05-16T19:45:30.847Z,10.60
2019-05-16T19:48:00.744Z,10.50
2019-05-16T19:50:30.901Z,10.60
2019-05-16T19:53:00.762Z,10.50
2019-05-16T19:55:36.582Z,10.50
2019-05-16T19:58:07.704Z,10.40
2019-05-16T20:00:39.136Z,10.50
2019-05-16T20:03:08.893Z,10.50
2019-05-16T20:05:38.673Z,10.50
2019-05-16T20:08:08.882Z,10.40
2019-05-16T20:10:38.722Z,10.40
2019-05-16T20:13:08.805Z,10.50
2019-05-16T20:15:41.623Z,10.50
2019-05-16T20:18:11.501Z,10.50
2019-05-16T20:20:41.882Z,10.50
2019-05-16T20:23:12.659Z,10.40
2019-05-16T20:25:43.560Z,10.30
2019-05-16T20:28:12.984Z,10.30
2019-05-16T20:30:42.949Z,10.40
2019-05-16T20:33:12.384Z,10.20
2019-05-16T20:35:41.790Z,10.30
2019-05-16T20:38:11.197Z,10.30
2019-05-16T20:40:40.672Z,10.30
2019-05-16T20:43:11.758Z,10.30
2019-05-16T20:45:41.444Z,10.20
2019-05-16T20:48:15.180Z,10.30
2019-05-16T20:50:43.280Z,10.30
2019-05-16T20:53:12.653Z,10.30
2019-05-16T20:55:43.576Z,10.20
2019-05-16T20:58:12.980Z,10.10
2019-05-16T21:00:49.441Z,10.10
2019-05-16T21:03:18.722Z,9.90
2019-05-16T21:05:49.708Z,10.00
2019-05-16T21:08:20.144Z,9.90
2019-05-16T21:10:50.581Z,9.90
2019-05-16T21:13:21.281Z,10.00
2019-05-16T21:15:50.734Z,10.00
2019-05-16T21:18:24.354Z,9.90
2019-05-16T21:20:57.470Z,9.90
2019-05-16T21:23:28.761Z,9.90
2019-05-16T21:26:01.785Z,9.90
2019-05-16T21:28:32.072Z,9.90
2019-05-16T21:31:01.893Z,9.80
2019-05-16T21:33:31.945Z,9.80
2019-05-16T21:36:01.945Z,9.80
2019-05-16T21:38:32.001Z,9.90
2019-05-16T21:41:01.911Z,9.80
2019-05-16T21:43:32.125Z,9.80
2019-05-16T21:46:01.796Z,9.80
2019-05-16T21:48:33.557Z,9.70
2019-05-16T21:51:03.102Z,9.80
2019-05-16T21:53:32.703Z,9.80
2019-05-16T21:56:02.205Z,9.70
2019-05-16T21:58:32.445Z,9.70
2019-05-16T22:01:06.919Z,9.70
2019-05-16T22:03:36.830Z,9.70
2019-05-16T22:06:08.009Z,9.80
2019-05-16T22:08:38.602Z,9.80
2019-05-16T22:11:08.401Z,9.80
2019-05-16T22:13:38.321Z,9.80
2019-05-16T22:16:08.703Z,9.80
2019-05-16T22:18:39.072Z,9.70
2019-05-16T22:21:08.826Z,9.80
2019-05-16T22:23:38.591Z,9.80
2019-05-16T22:26:08.048Z,9.80
2019-05-16T22:28:38.434Z,9.90
2019-05-16T22:31:10.034Z,9.80
2019-05-16T22:33:39.641Z,9.80
2019-05-16T22:36:10.713Z,9.80
2019-05-16T22:38:41.246Z,9.80
2019-05-16T22:41:10.932Z,9.80
2019-05-16T22:43:40.868Z,9.80
2019-05-16T22:46:10.285Z,9.70
2019-05-16T22:48:41.259Z,9.70
2019-05-16T22:51:10.601Z,9.70
2019-05-16T22:53:40.048Z,9.70
2019-05-16T22:56:09.483Z,9.70
2019-05-16T22:58:39.852Z,9.70
2019-05-16T23:01:09.465Z,9.70
2019-05-16T23:03:39.745Z,9.70
2019-05-16T23:06:09.589Z,9.70
2019-05-16T23:08:41.099Z,9.70
2019-05-16T23:11:11.172Z,9.70
2019-05-16T23:13:40.992Z,9.70
2019-05-16T23:16:10.425Z,9.70
2019-05-16T23:18:39.852Z,9.70
2019-05-16T23:21:11.508Z,9.70
2019-05-16T23:23:41.841Z,9.70
2019-05-16T23:26:12.602Z,9.70
2019-05-16T23:28:42.565Z,9.70
2019-05-16T23:31:16.482Z,9.70
2019-05-16T23:33:47.043Z,9.70
2019-05-16T23:36:19.265Z,9.70
2019-05-16T23:38:48.600Z,9.70
2019-05-16T23:41:18.883Z,9.70
2019-05-16T23:43:49.449Z,9.70
2019-05-16T23:46:18.816Z,9.70
2019-05-16T23:48:48.232Z,9.70
2019-05-16T23:51:18.117Z,9.60
2019-05-16T23:53:47.525Z,9.60
2019-05-16T23:56:17.157Z,9.60
2019-05-16T23:58:47.671Z,9.60
